createdAt,value
2019-02-05T00:01:02.036Z,25.20
2019-02-05T00:03:31.023Z,28.25
2019-02-05T00:06:00.004Z,24.77
2019-02-05T00:08:28.909Z,26.60
2019-02-05T00:11:02.896Z,26.68
2019-02-05T00:13:31.881Z,27.30
2019-02-05T00:16:00.909Z,25.62
2019-02-05T00:18:29.882Z,26.95
2019-02-05T00:20:58.783Z,25.85
2019-02-05T00:23:27.757Z,27.10
2019-02-05T00:26:05.891Z,24.98
2019-02-05T00:28:27.391Z,24.60
2019-02-05T00:30:56.377Z,29.40
2019-02-05T00:33:25.359Z,30.02
2019-02-05T00:35:54.348Z,28.60
2019-02-05T00:38:23.372Z,26.05
2019-02-05T00:40:52.396Z,29.32
2019-02-05T00:43:21.440Z,31.00
2019-02-05T00:45:50.354Z,28.23
2019-02-05T00:48:19.271Z,27.17
2019-02-05T00:50:48.290Z,26.50
2019-02-05T00:53:17.363Z,26.57
2019-02-05T00:55:46.332Z,28.30
2019-02-05T00:58:15.334Z,26.33
2019-02-05T01:00:44.246Z,27.70
2019-02-05T01:03:13.212Z,27.35
2019-02-05T01:05:42.207Z,26.95
2019-02-05T01:08:11.283Z,28.92
2019-02-05T01:10:40.524Z,27.50
2019-02-05T01:13:09.499Z,30.20
2019-02-05T01:15:38.347Z,28.40
2019-02-05T01:18:12.272Z,29.55
2019-02-05T01:20:41.266Z,28.55
2019-02-05T01:23:10.268Z,26.35
2019-02-05T01:25:40.074Z,27.35
2019-02-05T01:28:09.049Z,29.70
2019-02-05T01:30:37.945Z,30.25
2019-02-05T01:33:06.925Z,31.73
2019-02-05T01:35:35.905Z,31.82
2019-02-05T01:38:06.304Z,27.95
2019-02-05T01:40:35.927Z,29.60
2019-02-05T01:43:04.901Z,33.30
2019-02-05T01:45:33.828Z,30.80
2019-02-05T01:48:02.812Z,31.10
2019-02-05T01:50:31.758Z,27.58
2019-02-05T01:53:01.380Z,28.40
2019-02-05T01:55:30.208Z,33.73
2019-02-05T01:57:59.126Z,28.12
2019-02-05T02:00:30.878Z,29.48
2019-02-05T02:03:00.121Z,28.60
2019-02-05T02:05:29.597Z,27.67
2019-02-05T02:07:58.977Z,29.67
2019-02-05T02:10:29.463Z,34.53
2019-02-05T02:12:58.791Z,27.55
2019-02-05T02:15:27.871Z,31.93
2019-02-05T02:17:56.835Z,30.15
2019-02-05T02:20:25.823Z,31.23
2019-02-05T02:22:55.109Z,32.20
2019-02-05T02:25:24.098Z,30.05
2019-02-05T02:27:53.074Z,33.02
2019-02-05T02:30:28.094Z,32.75
2019-02-05T02:32:57.065Z,32.30
2019-02-05T02:35:26.076Z,32.13
2019-02-05T02:37:55.364Z,32.05
2019-02-05T02:40:24.406Z,31.35
2019-02-05T02:42:53.408Z,33.00
2019-02-05T02:45:22.391Z,30.90
2019-02-05T02:47:51.471Z,34.27
2019-02-05T02:50:20.460Z,29.77
2019-02-05T02:52:49.821Z,31.23
2019-02-05T02:55:18.839Z,31.25
2019-02-05T02:57:47.889Z,35.43
2019-02-05T03:00:18.373Z,31.50
2019-02-05T03:02:47.535Z,30.55
2019-02-05T03:05:18.168Z,33.05
2019-02-05T03:07:47.432Z,31.85
2019-02-05T03:10:18.984Z,33.23
2019-02-05T03:12:48.139Z,35.92
2019-02-05T03:15:17.304Z,32.75
2019-02-05T03:17:46.347Z,34.10
2019-02-05T03:20:15.796Z,34.35
2019-02-05T03:22:45.419Z,34.55
2019-02-05T03:25:17.339Z,33.88
2019-02-05T03:27:46.308Z,34.67
2019-02-05T03:30:17.540Z,37.28
2019-02-05T03:32:46.601Z,34.15
2019-02-05T03:35:15.881Z,31.23
2019-02-05T03:37:45.047Z,32.90
2019-02-05T03:40:52.691Z,35.55
2019-02-05T03:43:21.701Z,34.90
2019-02-05T03:45:50.734Z,32.95
2019-02-05T03:48:19.729Z,33.28
2019-02-05T03:50:51.619Z,35.00
2019-02-05T03:53:22.742Z,35.00
2019-02-05T03:56:31.287Z,34.25
2019-02-05T03:59:26.214Z,35.43
2019-02-05T04:02:05.839Z,34.38
2019-02-05T04:05:08.557Z,33.20
2019-02-05T04:08:27.813Z,34.92
2019-02-05T04:11:28.120Z,32.75
2019-02-05T04:14:22.200Z,37.78
2019-02-05T04:17:39.831Z,34.55
2019-02-05T04:20:30.827Z,40.80
2019-02-05T04:23:48.454Z,31.50
2019-02-05T04:27:10.275Z,37.25
2019-02-05T04:30:11.277Z,32.83
2019-02-05T04:33:05.500Z,35.05
2019-02-05T04:36:20.709Z,34.38
2019-02-05T04:39:27.897Z,33.53
2019-02-05T04:42:28.622Z,39.58
2019-02-05T04:45:38.561Z,33.98
2019-02-05T04:48:44.470Z,33.78
2019-02-05T04:51:52.095Z,38.00
2019-02-05T04:54:50.276Z,33.38
2019-02-05T04:57:56.953Z,40.63
2019-02-05T05:00:54.039Z,33.02
2019-02-05T05:03:29.402Z,36.17
2019-02-05T05:06:36.012Z,36.42
2019-02-05T05:09:53.686Z,35.63
2019-02-05T05:12:23.079Z,36.80
2019-02-05T05:14:52.135Z,38.42
2019-02-05T05:17:21.170Z,38.65
2019-02-05T05:19:50.446Z,36.75
2019-02-05T05:22:19.509Z,37.30
2019-02-05T05:24:48.713Z,38.63
2019-02-05T05:27:19.473Z,37.00
2019-02-05T05:29:48.938Z,41.53
2019-02-05T05:32:18.538Z,39.05
2019-02-05T05:34:47.530Z,41.08
2019-02-05T05:37:22.775Z,38.10
2019-02-05T05:39:51.667Z,37.95
2019-02-05T05:42:20.661Z,38.83
2019-02-05T05:44:49.762Z,45.20
2019-02-05T05:47:18.796Z,41.10
2019-02-05T05:49:47.861Z,36.77
2019-02-05T05:52:16.894Z,41.92
2019-02-05T05:54:47.469Z,36.38
2019-02-05T05:57:18.687Z,38.92
2019-02-05T05:59:47.101Z,42.43
2019-02-05T06:02:16.912Z,39.35
2019-02-05T06:04:45.923Z,37.63
2019-02-05T06:07:14.857Z,39.35
2019-02-05T06:09:44.179Z,38.75
2019-02-05T06:12:13.227Z,36.40
2019-02-05T06:14:42.220Z,38.88
2019-02-05T06:17:11.141Z,38.92
2019-02-05T06:19:40.095Z,37.23
2019-02-05T06:22:09.114Z,39.13
2019-02-05T06:24:38.167Z,36.38
2019-02-05T06:27:14.135Z,43.60
2019-02-05T06:29:43.132Z,34.58
2019-02-05T06:32:13.979Z,37.50
2019-02-05T06:34:42.963Z,36.28
2019-02-05T06:37:12.015Z,37.55
2019-02-05T06:39:41.089Z,37.45
2019-02-05T06:42:10.084Z,41.37
2019-02-05T06:44:39.162Z,37.63
2019-02-05T06:47:09.738Z,35.65
2019-02-05T06:49:38.668Z,35.68
2019-02-05T06:52:07.925Z,34.45
2019-02-05T06:54:36.928Z,34.75
2019-02-05T06:57:05.975Z,37.55
2019-02-05T06:59:34.885Z,34.60
2019-02-05T07:02:04.242Z,34.90
2019-02-05T07:04:34.304Z,35.68
2019-02-05T07:07:03.362Z,35.90
2019-02-05T07:09:32.480Z,33.75
2019-02-05T07:12:01.586Z,40.60
2019-02-05T07:14:30.646Z,34.88
2019-02-05T07:16:59.659Z,36.50
2019-02-05T07:19:28.923Z,34.23
2019-02-05T07:21:58.044Z,34.13
2019-02-05T07:24:27.223Z,37.48
2019-02-05T07:26:56.369Z,39.73
2019-02-05T07:29:25.550Z,37.00
2019-02-05T07:31:54.599Z,34.83
2019-02-05T07:34:23.669Z,36.23
2019-02-05T07:36:52.620Z,33.00
2019-02-05T07:39:21.613Z,35.88
2019-02-05T07:41:50.727Z,33.20
2019-02-05T07:44:19.834Z,34.03
2019-02-05T07:46:48.889Z,37.15
2019-02-05T07:49:17.886Z,37.33
2019-02-05T07:51:47.023Z,37.23
2019-02-05T07:54:16.312Z,36.88
2019-02-05T07:56:45.435Z,39.92
2019-02-05T07:59:14.572Z,36.35
2019-02-05T08:01:43.543Z,36.25
2019-02-05T08:04:12.593Z,37.25
2019-02-05T08:06:41.742Z,37.25
2019-02-05T08:09:13.933Z,36.88
2019-02-05T08:11:43.267Z,37.55
2019-02-05T08:14:12.487Z,36.88
2019-02-05T08:16:41.587Z,37.03
2019-02-05T08:19:10.711Z,38.63
2019-02-05T08:21:39.818Z,38.15
2019-02-05T08:24:08.932Z,40.17
2019-02-05T08:26:38.049Z,37.13
2019-02-05T08:29:07.296Z,39.15
2019-02-05T08:31:36.420Z,40.28
2019-02-05T08:34:05.612Z,40.63
2019-02-05T08:36:34.596Z,40.12
2019-02-05T08:39:05.404Z,39.80
2019-02-05T08:41:34.415Z,38.53
2019-02-05T08:44:03.460Z,41.15
2019-02-05T08:46:32.891Z,42.55
2019-02-05T08:49:02.035Z,37.73
2019-02-05T08:51:31.087Z,45.70
2019-02-05T08:54:00.221Z,39.10
2019-02-05T08:56:29.395Z,36.63
2019-02-05T08:58:58.487Z,38.28
2019-02-05T09:01:27.617Z,40.90
2019-02-05T09:03:56.966Z,35.88
2019-02-05T09:06:25.944Z,31.97
2019-02-05T09:08:54.975Z,33.98
2019-02-05T09:11:24.969Z,29.92
2019-02-05T09:13:54.087Z,33.25
2019-02-05T09:16:23.189Z,29.80
2019-02-05T09:18:52.330Z,30.25
2019-02-05T09:21:21.442Z,28.60
2019-02-05T09:23:50.557Z,27.02
2019-02-05T09:26:19.632Z,32.88
2019-02-05T09:28:48.930Z,34.63
2019-02-05T09:31:17.948Z,31.85
2019-02-05T09:33:47.065Z,29.60
2019-02-05T09:36:16.191Z,29.60
2019-02-05T09:38:48.081Z,27.70
2019-02-05T09:41:17.217Z,30.45
2019-02-05T09:43:46.537Z,28.10
2019-02-05T09:46:15.650Z,30.77
2019-02-05T09:48:44.775Z,29.00
2019-02-05T09:51:13.878Z,31.27
2019-02-05T09:53:43.301Z,31.52
2019-02-05T09:56:12.458Z,33.45
2019-02-05T09:58:41.531Z,33.10
2019-02-05T10:01:10.658Z,30.00
2019-02-05T10:03:39.689Z,31.37
2019-02-05T10:06:08.710Z,30.80
2019-02-05T10:08:37.822Z,30.27
2019-02-05T10:11:07.034Z,31.35
2019-02-05T10:13:36.164Z,30.23
2019-02-05T10:16:05.394Z,31.30
2019-02-05T10:18:34.422Z,31.57
2019-02-05T10:21:03.573Z,32.65
2019-02-05T10:23:32.614Z,36.73
2019-02-05T10:26:01.728Z,33.25
2019-02-05T10:28:30.824Z,34.73
2019-02-05T10:31:01.696Z,33.25
2019-02-05T10:33:30.750Z,31.40
2019-02-05T10:36:01.399Z,31.57
2019-02-05T10:38:30.591Z,32.95
2019-02-05T10:40:59.639Z,30.60
2019-02-05T10:43:28.986Z,33.18
2019-02-05T10:45:58.103Z,31.82
2019-02-05T10:48:27.075Z,32.08
2019-02-05T10:50:56.116Z,30.52
2019-02-05T10:53:25.246Z,30.52
2019-02-05T10:55:54.359Z,30.25
2019-02-05T10:58:23.453Z,30.27
2019-02-05T11:00:52.525Z,37.00
2019-02-05T11:03:21.594Z,31.68
2019-02-05T11:05:50.709Z,35.08
2019-02-05T11:08:19.667Z,34.67
2019-02-05T11:10:48.798Z,34.15
2019-02-05T11:13:18.968Z,32.35
2019-02-05T11:15:48.336Z,31.97
2019-02-05T11:18:19.616Z,37.83
2019-02-05T11:20:48.764Z,31.50
2019-02-05T11:23:17.862Z,31.15
2019-02-05T11:25:46.962Z,31.12
2019-02-05T11:28:16.128Z,31.77
2019-02-05T11:30:45.836Z,32.08
2019-02-05T11:33:15.262Z,31.57
2019-02-05T11:35:44.425Z,33.58
2019-02-05T11:38:13.591Z,34.83
2019-02-05T11:40:42.811Z,32.95
2019-02-05T11:43:12.005Z,32.65
2019-02-05T11:45:41.132Z,35.00
2019-02-05T11:48:13.669Z,35.43
2019-02-05T11:50:42.804Z,32.70
2019-02-05T11:53:11.859Z,31.60
2019-02-05T11:55:40.949Z,29.07
2019-02-05T11:58:10.077Z,28.60
2019-02-05T12:00:52.727Z,28.42
2019-02-05T12:03:22.073Z,28.32
2019-02-05T12:05:51.135Z,28.62
2019-02-05T12:08:20.251Z,29.25
2019-02-05T12:10:49.321Z,28.45
2019-02-05T12:13:18.476Z,30.70
2019-02-05T12:15:47.618Z,29.55
2019-02-05T12:18:16.753Z,29.12
2019-02-05T12:20:46.069Z,28.50
2019-02-05T12:23:15.162Z,28.73
2019-02-05T12:25:44.207Z,28.10
2019-02-05T12:28:13.341Z,29.05
2019-02-05T12:30:45.285Z,26.97
2019-02-05T12:33:13.442Z,25.30
2019-02-05T12:35:42.556Z,26.68
2019-02-05T12:38:11.773Z,26.23
2019-02-05T12:40:40.822Z,27.45
2019-02-05T12:43:10.058Z,26.25
2019-02-05T12:45:39.162Z,24.63
2019-02-05T12:48:08.474Z,27.93
2019-02-05T12:50:37.941Z,27.30
2019-02-05T12:53:07.454Z,28.10
2019-02-05T12:55:36.687Z,26.23
2019-02-05T12:58:06.342Z,24.45
2019-02-05T13:00:40.660Z,28.00
2019-02-05T13:03:10.554Z,27.25
2019-02-05T13:05:39.980Z,26.82
2019-02-05T13:08:09.101Z,27.13
2019-02-05T13:10:40.662Z,29.50
2019-02-05T13:13:09.951Z,29.72
2019-02-05T13:15:39.210Z,29.05
2019-02-05T13:18:13.486Z,28.75
2019-02-05T13:20:42.752Z,26.57
2019-02-05T13:23:11.928Z,30.27
2019-02-05T13:25:41.242Z,29.12
2019-02-05T13:28:12.661Z,28.40
2019-02-05T13:30:41.898Z,29.60
2019-02-05T13:33:12.093Z,27.62
2019-02-05T13:35:41.818Z,30.43
2019-02-05T13:38:10.955Z,27.27
2019-02-05T13:40:40.071Z,29.98
2019-02-05T13:43:09.179Z,29.25
2019-02-05T13:45:40.015Z,30.00
2019-02-05T13:48:09.627Z,30.52
2019-02-05T13:50:38.940Z,27.60
2019-02-05T13:53:08.191Z,28.42
2019-02-05T13:55:43.318Z,24.55
2019-02-05T13:58:13.426Z,28.17
2019-02-05T14:00:50.765Z,24.63
2019-02-05T14:03:19.891Z,24.10
2019-02-05T14:05:49.134Z,25.52
2019-02-05T14:08:18.266Z,27.50
2019-02-05T14:10:48.006Z,26.97
2019-02-05T14:13:17.380Z,24.98
2019-02-05T14:15:48.997Z,25.37
2019-02-05T14:18:18.119Z,23.52
2019-02-05T14:20:47.272Z,23.40
2019-02-05T14:23:16.300Z,23.38
2019-02-05T14:25:45.429Z,24.85
2019-02-05T14:28:14.562Z,22.20
2019-02-05T14:30:49.799Z,23.73
2019-02-05T14:33:18.855Z,26.97
2019-02-05T14:35:48.022Z,23.95
2019-02-05T14:38:19.545Z,24.12
2019-02-05T14:40:48.637Z,24.60
2019-02-05T14:43:17.772Z,22.90
2019-02-05T14:45:46.859Z,23.07
2019-02-05T14:48:15.997Z,23.67
2019-02-05T14:50:47.247Z,22.05
2019-02-05T14:53:17.856Z,24.52
2019-02-05T14:55:48.763Z,26.15
2019-02-05T14:58:18.661Z,23.40
2019-02-05T15:00:47.838Z,23.73
2019-02-05T15:03:17.020Z,26.57
2019-02-05T15:05:47.023Z,25.52
2019-02-05T15:08:17.537Z,26.17
2019-02-05T15:10:46.693Z,24.47
2019-02-05T15:13:17.941Z,26.73
2019-02-05T15:15:47.078Z,26.62
2019-02-05T15:18:18.394Z,24.92
2019-02-05T15:20:49.054Z,26.07
2019-02-05T15:23:18.247Z,28.35
2019-02-05T15:25:47.959Z,23.98
2019-02-05T15:28:19.485Z,26.40
2019-02-05T15:30:51.485Z,24.82
2019-02-05T15:33:48.019Z,27.02
2019-02-05T15:36:21.816Z,25.68
2019-02-05T15:38:51.815Z,24.37
2019-02-05T15:41:21.742Z,25.68
2019-02-05T15:43:52.032Z,24.70
2019-02-05T15:46:22.392Z,26.80
2019-02-05T15:48:53.338Z,25.82
2019-02-05T15:51:24.936Z,24.57
2019-02-05T15:53:56.104Z,27.27
2019-02-05T15:56:27.705Z,26.20
2019-02-05T15:58:59.091Z,26.25
2019-02-05T16:01:29.643Z,24.12
2019-02-05T16:04:01.641Z,25.10
2019-02-05T16:06:31.589Z,27.42
2019-02-05T16:09:01.162Z,28.98
2019-02-05T16:11:31.801Z,28.23
2019-02-05T16:14:02.472Z,27.55
2019-02-05T16:16:33.292Z,26.27
2019-02-05T16:19:03.880Z,25.30
2019-02-05T16:21:35.108Z,27.85
2019-02-05T16:24:05.390Z,26.25
2019-02-05T16:26:34.626Z,26.27
2019-02-05T16:29:04.201Z,26.52
2019-02-05T16:31:34.527Z,26.40
2019-02-05T16:34:08.797Z,26.77
2019-02-05T16:36:39.431Z,26.05
2019-02-05T16:39:12.312Z,26.52
2019-02-05T16:41:43.323Z,24.55
2019-02-05T16:44:13.284Z,27.77
2019-02-05T16:46:42.947Z,27.20
2019-02-05T16:49:13.652Z,26.68
2019-02-05T16:51:44.264Z,26.05
2019-02-05T16:54:13.801Z,28.77
2019-02-05T16:56:43.651Z,28.85
2019-02-05T16:59:13.049Z,30.27
2019-02-05T17:01:42.364Z,30.27
2019-02-05T17:04:11.624Z,31.90
2019-02-05T17:06:40.949Z,34.48
2019-02-05T17:09:15.798Z,31.95
2019-02-05T17:11:45.014Z,33.83
2019-02-05T17:14:14.342Z,31.45
2019-02-05T17:16:43.578Z,31.77
2019-02-05T17:19:12.847Z,34.00
2019-02-05T17:21:42.155Z,33.90
2019-02-05T17:24:14.249Z,33.92
2019-02-05T17:26:43.602Z,33.35
2019-02-05T17:29:13.566Z,33.55
2019-02-05T17:31:43.523Z,32.55
2019-02-05T17:34:13.706Z,32.67
2019-02-05T17:36:43.865Z,29.48
2019-02-05T17:39:14.564Z,31.95
2019-02-05T17:41:44.010Z,31.12
2019-02-05T17:44:13.252Z,31.30
2019-02-05T17:46:43.774Z,33.80
2019-02-05T17:49:12.999Z,31.85
2019-02-05T17:51:42.251Z,31.15
2019-02-05T17:54:15.172Z,32.35
2019-02-05T17:56:44.560Z,31.40
2019-02-05T17:59:14.055Z,31.80
2019-02-05T18:01:43.478Z,32.53
2019-02-05T18:04:12.941Z,30.62
2019-02-05T18:06:42.259Z,29.87
2019-02-05T18:09:15.298Z,32.78
2019-02-05T18:11:45.141Z,34.95
2019-02-05T18:14:21.972Z,31.70
2019-02-05T18:16:52.937Z,35.30
2019-02-05T18:19:23.883Z,32.98
2019-02-05T18:21:55.777Z,32.58
2019-02-05T18:24:25.054Z,32.48
2019-02-05T18:26:55.421Z,33.73
2019-02-05T18:29:25.256Z,33.18
2019-02-05T18:31:56.711Z,34.00
2019-02-05T18:34:28.151Z,33.30
2019-02-05T18:36:59.897Z,33.80
2019-02-05T18:39:33.110Z,34.15
2019-02-05T18:42:03.381Z,35.00
2019-02-05T18:44:32.661Z,31.07
2019-02-05T18:47:02.625Z,32.38
2019-02-05T18:49:33.074Z,30.12
2019-02-05T18:52:03.565Z,30.25
2019-02-05T18:54:33.885Z,25.68
2019-02-05T18:57:03.950Z,27.35
2019-02-05T18:59:34.051Z,26.65
2019-02-05T19:02:04.908Z,28.42
2019-02-05T19:04:34.671Z,27.30
2019-02-05T19:07:07.582Z,27.30
2019-02-05T19:09:39.789Z,23.12
2019-02-05T19:12:09.686Z,24.47
2019-02-05T19:14:39.791Z,23.92
2019-02-05T19:17:13.780Z,23.65
2019-02-05T19:19:46.703Z,24.57
2019-02-05T19:22:16.495Z,23.40
2019-02-05T19:24:54.298Z,24.70
2019-02-05T19:27:23.734Z,24.90
2019-02-05T19:29:57.245Z,23.65
2019-02-05T19:32:28.829Z,23.75
2019-02-05T19:34:59.489Z,24.40
2019-02-05T19:37:29.835Z,23.57
2019-02-05T19:39:59.136Z,22.42
2019-02-05T19:42:29.732Z,24.05
2019-02-05T19:45:25.365Z,23.65
2019-02-05T19:47:55.154Z,24.02
2019-02-05T19:50:24.351Z,23.62
2019-02-05T19:52:53.478Z,23.57
2019-02-05T19:55:22.653Z,22.50
2019-02-05T19:57:52.504Z,24.18
2019-02-05T20:00:22.032Z,24.87
2019-02-05T20:02:51.260Z,24.18
2019-02-05T20:05:20.556Z,24.55
2019-02-05T20:07:50.119Z,24.32
2019-02-05T20:10:19.379Z,24.75
2019-02-05T20:12:48.549Z,25.23
2019-02-05T20:15:23.685Z,24.00
2019-02-05T20:17:52.814Z,25.12
2019-02-05T20:20:24.014Z,23.70
2019-02-05T20:22:52.938Z,23.60
2019-02-05T20:25:24.020Z,25.68
2019-02-05T20:27:52.761Z,23.35
2019-02-05T20:30:22.085Z,24.10
2019-02-05T20:32:51.447Z,23.73
2019-02-05T20:35:20.629Z,27.42
2019-02-05T20:37:50.384Z,22.98
2019-02-05T20:40:19.715Z,24.52
2019-02-05T20:42:49.013Z,23.30
2019-02-05T20:45:18.139Z,23.20
2019-02-05T20:47:47.444Z,24.92
2019-02-05T20:50:16.683Z,25.23
2019-02-05T20:52:45.940Z,23.60
2019-02-05T20:55:16.174Z,25.12
2019-02-05T20:57:45.382Z,24.05
2019-02-05T21:00:17.479Z,23.35
2019-02-05T21:02:46.703Z,22.48
2019-02-05T21:05:17.163Z,22.58
2019-02-05T21:07:46.488Z,23.12
2019-02-05T21:10:18.672Z,21.80
2019-02-05T21:12:47.829Z,21.20
2019-02-05T21:15:17.326Z,22.67
2019-02-05T21:17:46.603Z,24.85
2019-02-05T21:20:28.464Z,21.37
2019-02-05T21:22:48.064Z,21.25
2019-02-05T21:25:18.238Z,21.85
2019-02-05T21:27:47.392Z,20.57
2019-02-05T21:30:18.253Z,22.35
2019-02-05T21:32:48.051Z,21.82
2019-02-05T21:35:17.259Z,21.42
2019-02-05T21:37:46.409Z,20.97
2019-02-05T21:40:18.345Z,22.10
2019-02-05T21:42:47.471Z,20.60
2019-02-05T21:45:18.298Z,23.60
2019-02-05T21:47:47.401Z,23.83
2019-02-05T21:50:18.488Z,21.50
2019-02-05T21:52:48.637Z,23.20
2019-02-05T21:55:18.350Z,23.07
2019-02-05T21:57:47.598Z,22.77
2019-02-05T22:00:27.566Z,22.40
2019-02-05T22:02:56.687Z,22.10
2019-02-05T22:05:26.087Z,21.10
2019-02-05T22:07:55.330Z,23.32
2019-02-05T22:10:24.746Z,21.87
2019-02-05T22:12:53.935Z,22.20
2019-02-05T22:15:23.609Z,20.27
2019-02-05T22:17:52.754Z,22.05
2019-02-05T22:20:23.517Z,20.72
2019-02-05T22:22:52.677Z,21.52
2019-02-05T22:25:27.264Z,22.80
2019-02-05T22:27:56.399Z,23.67
2019-02-05T22:30:28.365Z,20.48
2019-02-05T22:32:57.882Z,19.92
2019-02-05T22:35:27.209Z,19.85
2019-02-05T22:37:56.335Z,19.07
2019-02-05T22:40:26.270Z,20.17
2019-02-05T22:42:55.410Z,19.87
2019-02-05T22:45:26.564Z,20.82
2019-02-05T22:47:55.695Z,21.30
2019-02-05T22:50:26.419Z,19.27
2019-02-05T22:52:55.623Z,18.67
2019-02-05T22:55:24.835Z,19.40
2019-02-05T22:57:53.886Z,20.92
2019-02-05T23:01:02.926Z,19.45
2019-02-05T23:03:38.678Z,19.40
2019-02-05T23:06:36.121Z,19.55
2019-02-05T23:09:27.346Z,19.27
2019-02-05T23:12:18.431Z,18.90
2019-02-05T23:14:50.999Z,19.37
2019-02-05T23:17:20.214Z,19.15
2019-02-05T23:19:49.323Z,18.00
2019-02-05T23:22:18.437Z,17.67
2019-02-05T23:24:47.439Z,17.10
2019-02-05T23:27:16.480Z,16.15
2019-02-05T23:29:45.645Z,18.20
2019-02-05T23:32:14.663Z,17.65
2019-02-05T23:34:43.748Z,17.20
2019-02-05T23:37:14.210Z,17.10
2019-02-05T23:39:43.345Z,18.57
2019-02-05T23:42:12.330Z,15.23
2019-02-05T23:44:41.520Z,16.67
2019-02-05T23:47:10.486Z,16.57
2019-02-05T23:49:39.508Z,16.93
2019-02-05T23:52:08.496Z,16.42
2019-02-05T23:54:37.421Z,15.78
2019-02-05T23:57:06.419Z,15.40
2019-02-05T23:59:36.801Z,13.55
